»·PEaware :: N572Z KSUN-KBOI

N572Z :: KSUN-KBOI

FLIGHT INFORMATION

Flight Status: Arrived
Operator: Privately registered:
United States
More flights under this callsign
Pilot: Danny S. (32185)
Aircraft: BEECH AIRCRAFT BARON
(BE58)
More flights by this aircraft type
Origin: KSUN Friedman Meml
United States
Destination: KBOI Boise Air Terminal/Gowen
United States
More flights between these airports :: More routes between these airports
Route: KSUN SOLDE DERSO EREXE HESGO TOILS ZETIL ZIXIP KBOI
File this flight plan on PilotEdge
Remarks:
Altitude:
(Current/Filed)
9,500ft
Speed:
(Current/Filed)
150kts
Departed: 27-Oct-20 03:25 PM
Arrived: 27-Oct-20 04:22 PM
Distance/Time
Traveled:
84nm/0:57
Distance/Time
To Go:
Arrived

Flight Plot

Page will automatically refresh every two minutes.

Flight plan parsing failed; only flown route is shown


Map Options




Map Legend


Flown Route
Filed Route
Departure Airport
Arrival Airport
Navaid (VOR, NDB)
Fix

Horizontal Profiles

Position Reports

Time Latitude Longitude Heading Altitude Ground
Speed
27-Oct-20 15:09 0.000408 0.013975 359 3ft 0kts
27-Oct-20 15:10 0.000408 0.013975 359 3ft 0kts
27-Oct-20 15:11 0.000408 0.013975 359 3ft 0kts
27-Oct-20 15:12 43.497497 -114.291586 53 5285ft 0kts
27-Oct-20 15:13 43.497497 -114.291586 53 5276ft 0kts
27-Oct-20 15:14 43.497497 -114.291586 53 5276ft 0kts
27-Oct-20 15:15 43.497497 -114.291586 53 5276ft 0kts
27-Oct-20 15:16 43.497497 -114.291586 53 5276ft 0kts
27-Oct-20 15:17 43.497497 -114.291586 53 5276ft 0kts
27-Oct-20 15:18 43.497503 -114.291576 53 5276ft 0kts
27-Oct-20 15:19 43.495016 -114.288432 89 5265ft 0kts
27-Oct-20 15:20 43.495016 -114.288432 89 5265ft 0kts
27-Oct-20 15:21 43.495016 -114.288432 89 5265ft 0kts
27-Oct-20 15:22 43.495017 -114.288424 101 5265ft 0kts
27-Oct-20 15:23 43.495459 -114.289037 325 5268ft 28kts
27-Oct-20 15:24 43.509873 -114.302705 326 5318ft 78kts
27-Oct-20 15:25 43.511785 -114.304563 105 5325ft 7kts
27-Oct-20 15:26 43.510918 -114.302392 147 5318ft 45kts
27-Oct-20 15:27 43.486921 -114.287511 176 6834ft 87kts
27-Oct-20 15:28 43.464695 -114.317732 240 7535ft 151kts
27-Oct-20 15:29 43.442625 -114.366855 240 8607ft 158kts
27-Oct-20 15:30 43.418852 -114.420310 240 9438ft 170kts
27-Oct-20 15:31 43.392835 -114.479435 240 9499ft 184kts
27-Oct-20 15:32 43.366123 -114.540489 240 9500ft 187kts
27-Oct-20 15:33 43.357916 -114.559298 240 9495ft 186kts
27-Oct-20 15:34 43.346408 -114.585612 240 9501ft 184kts
27-Oct-20 15:35 43.322237 -114.640700 240 9504ft 160kts
27-Oct-20 15:36 43.299221 -114.692746 240 9499ft 156kts
27-Oct-20 15:37 43.279563 -114.744258 279 9502ft 151kts
27-Oct-20 15:38 43.298361 -114.798634 287 9496ft 163kts
27-Oct-20 15:39 43.310902 -114.860466 282 9501ft 174kts
27-Oct-20 15:40 43.316622 -114.892253 283 9496ft 174kts
27-Oct-20 15:41 43.319124 -114.905486 283 9496ft 173kts
27-Oct-20 15:42 43.319124 -114.905486 283 9496ft 173kts
27-Oct-20 15:43 43.329082 -114.958191 283 9500ft 174kts
27-Oct-20 15:44 43.341315 -115.022407 283 9502ft 173kts
27-Oct-20 15:45 43.353667 -115.087031 283 9504ft 179kts
27-Oct-20 15:46 43.366306 -115.153347 283 9506ft 180kts
27-Oct-20 15:47 43.389424 -115.275107 283 9512ft 177kts
27-Oct-20 15:48 43.395759 -115.308265 283 9509ft 180kts
27-Oct-20 15:49 43.402053 -115.341775 283 9502ft 181kts
27-Oct-20 15:50 43.408208 -115.374683 283 9499ft 174kts
27-Oct-20 15:51 43.414355 -115.407253 283 9488ft 174kts
27-Oct-20 15:52 43.420285 -115.439035 283 9515ft 171kts
27-Oct-20 15:53 43.426323 -115.470944 283 9495ft 171kts
27-Oct-20 15:54 43.432369 -115.503202 283 9520ft 178kts
27-Oct-20 15:55 43.438578 -115.536722 283 9501ft 182kts
27-Oct-20 15:56 43.444876 -115.570470 283 9506ft 181kts
27-Oct-20 15:57 43.451148 -115.604011 283 9502ft 180kts
27-Oct-20 15:58 43.457151 -115.636272 283 9520ft 180kts
27-Oct-20 15:59 43.457770 -115.639594 283 9508ft 180kts
27-Oct-20 16:00 43.463928 -115.672972 283 9495ft 176kts
27-Oct-20 16:01 43.467394 -115.705858 258 9420ft 179kts
27-Oct-20 16:02 43.460469 -115.738917 254 9445ft 180kts
27-Oct-20 16:03 43.460543 -115.772236 281 9428ft 180kts
27-Oct-20 16:04 43.466252 -115.805852 282 9426ft 180kts
27-Oct-20 16:05 43.471662 -115.837076 282 9314ft 155kts
27-Oct-20 16:06 43.476569 -115.864747 282 9048ft 141kts
27-Oct-20 16:07 43.481119 -115.890617 282 8558ft 139kts
27-Oct-20 16:08 43.485652 -115.916705 282 7817ft 139kts
27-Oct-20 16:09 43.489887 -115.940984 282 7243ft 132kts
27-Oct-20 16:10 43.494167 -115.965702 282 6685ft 130kts
27-Oct-20 16:11 43.498258 -115.989254 282 6526ft 121kts
27-Oct-20 16:12 43.502155 -116.010950 282 6496ft 111kts
27-Oct-20 16:13 43.505935 -116.031877 282 6256ft 126kts
27-Oct-20 16:14 43.512051 -116.058582 276 5146ft 160kts
27-Oct-20 16:15 43.513054 -116.089962 287 4113ft 159kts
27-Oct-20 16:16 43.523938 -116.114896 299 3803ft 155kts
27-Oct-20 16:17 43.534672 -116.140964 297 3881ft 154kts
27-Oct-20 16:18 43.544221 -116.167900 295 3458ft 142kts
27-Oct-20 16:19 43.551815 -116.189667 294 3093ft 120kts
27-Oct-20 16:20 43.558798 -116.209880 295 2908ft 96kts
27-Oct-20 16:21 43.563834 -116.224601 286 2845ft 38kts
27-Oct-20 16:22 43.563179 -116.225685 207 2846ft 0kts
27-Oct-20 16:23 43.563062 -116.225904 249 2846ft 8kts
27-Oct-20 16:24 43.565036 -116.231701 295 2840ft 52kts
27-Oct-20 16:25 43.563922 -116.235481 263 2837ft 0kts
27-Oct-20 16:26 43.564153 -116.236233 204 2836ft 1kts
27-Oct-20 16:27 43.564034 -116.236236 175 2836ft 0kts

Navigation Log

Ident Type
Flight plan parsing failed, navigation log unavailable